Kronborg, Nebraska
Current Conditions -  °F | °C
As of 5:15 AM on Friday 28 Nov 2014 (Local Time) from KAUH Reporting Station
Clear Clear  
Wind Chill: 16°   Ceiling: Unl
Heat Index: 25°   Visibility: 10mi
Dew Point: 19°   Wind: 8mph
Humidity: 77%   Direction: 220°SW
Pressure: 29.89"   Gusts: NA
Location:  41.0075°N, 98.0042°W
Report Text: KAUH 281115Z AUTO 22007KT 10SM CLR M04/M07 A2989 RMK AO2 T10381073
Loading
Personal Weather Stations






























Interactive Weather Map New forecast layout! Learn more

10-Day Weather Forecast

Advertisements
Track Severe Weather on mobile